VJC1805 VVTS-VAAH
Flight info
| Callsign | VJC1805 |
|---|---|
| Flight time | 4h 57m |
| Altitude | 30000 |
| Route | SAPEN5K SAPEN R468 ELMOP P629 MUBUS/N0468F320 M633 TANEK L301 DWI M506 KAMKO L524 NIPUX/N0462F340 L524 NNP/N0417F240 G472 BODAR BODAR1A |
| Aircraft | A21N/M-SDE2E3FGHIRWXY/LB1 |
Departure
| Time | 2026-04-15 05:00 |
|---|---|
| Airport | Tan Son Nhat International Airport (VVTS) |
Arrival
| Time | 2026-04-15 09:57 |
|---|---|
| Airport | Sardar Vallabh Patel International Airport (VAAH) |
| Time | Latitude | Longitude | Altitude | Speed | Heading |
|---|---|---|---|---|---|
| 2026-04-15 04:38 | 10.81204 | 106.65951 | 42 ft | 0 kts | 184° |
| 2026-04-15 04:46 | 10.81212 | 106.65952 | 42 ft | 4 kts | 185° |
| 2026-04-15 04:46 | 10.81260 | 106.65950 | 40 ft | 4 kts | 130° |
| 2026-04-15 04:46 | 10.81269 | 106.65926 | 39 ft | 4 kts | 96° |
| 2026-04-15 04:47 | 10.81270 | 106.65921 | 38 ft | 0 kts | 95° |
| 2026-04-15 04:52 | 10.81270 | 106.65925 | 38 ft | 2 kts | 95° |
| 2026-04-15 04:52 | 10.81268 | 106.65941 | 39 ft | 3 kts | 96° |
| 2026-04-15 04:52 | 10.81266 | 106.65962 | 42 ft | 3 kts | 95° |
| 2026-04-15 04:52 | 10.81265 | 106.65986 | 42 ft | 4 kts | 86° |
| 2026-04-15 04:53 | 10.81279 | 106.66009 | 42 ft | 4 kts | 38° |
| 2026-04-15 04:53 | 10.81310 | 106.66020 | 42 ft | 5 kts | 7° |
| 2026-04-15 04:53 | 10.81350 | 106.66025 | 42 ft | 6 kts | 5° |
| 2026-04-15 04:53 | 10.81397 | 106.66029 | 42 ft | 8 kts | 5° |
| 2026-04-15 04:54 | 10.81453 | 106.66034 | 42 ft | 9 kts | 5° |
| 2026-04-15 04:54 | 10.81515 | 106.66040 | 42 ft | 9 kts | 5° |
| 2026-04-15 04:54 | 10.81582 | 106.66046 | 42 ft | 10 kts | 5° |
| 2026-04-15 04:54 | 10.81654 | 106.66053 | 42 ft | 11 kts | 5° |
| 2026-04-15 04:55 | 10.81728 | 106.66060 | 42 ft | 11 kts | 5° |
| 2026-04-15 04:55 | 10.81805 | 106.66067 | 42 ft | 11 kts | 5° |
| 2026-04-15 04:55 | 10.81863 | 106.66091 | 39 ft | 9 kts | 53° |
| 2026-04-15 04:55 | 10.81892 | 106.66156 | 41 ft | 11 kts | 69° |
| 2026-04-15 04:56 | 10.81921 | 106.66233 | 42 ft | 12 kts | 69° |
| 2026-04-15 04:56 | 10.81954 | 106.66319 | 41 ft | 14 kts | 69° |
| 2026-04-15 04:56 | 10.81989 | 106.66413 | 41 ft | 15 kts | 69° |
| 2026-04-15 04:56 | 10.82028 | 106.66515 | 38 ft | 16 kts | 69° |
| 2026-04-15 04:57 | 10.82069 | 106.66625 | 39 ft | 17 kts | 69° |
| 2026-04-15 04:57 | 10.82113 | 106.66739 | 38 ft | 17 kts | 69° |
| 2026-04-15 04:57 | 10.82156 | 106.66854 | 37 ft | 18 kts | 69° |
| 2026-04-15 04:57 | 10.82199 | 106.66969 | 40 ft | 15 kts | 69° |
| 2026-04-15 04:58 | 10.82253 | 106.67008 | 41 ft | 11 kts | 352° |
| 2026-04-15 04:58 | 10.82319 | 106.66974 | 40 ft | 11 kts | 317° |
| 2026-04-15 04:58 | 10.82358 | 106.66932 | 38 ft | 6 kts | 284° |
| 2026-04-15 04:58 | 10.82350 | 106.66896 | 40 ft | 1 kts | 249° |
| 2026-04-15 04:59 | 10.82349 | 106.66894 | 40 ft | 4 kts | 249° |
| 2026-04-15 04:59 | 10.82271 | 106.66689 | 38 ft | 64 kts | 249° |
| 2026-04-15 04:59 | 10.82028 | 106.66046 | 44 ft | 129 kts | 249° |
| 2026-04-15 04:59 | 10.81637 | 106.65013 | 46 ft | 180 kts | 249° |
| 2026-04-15 05:00 | 10.81186 | 106.63775 | 424 ft | 185 kts | 248° |
| 2026-04-15 05:00 | 10.80740 | 106.62565 | 967 ft | 186 kts | 246° |
| 2026-04-15 05:00 | 10.80272 | 106.61332 | 1521 ft | 186 kts | 247° |
| 2026-04-15 05:00 | 10.79796 | 106.60064 | 1882 ft | 198 kts | 247° |
| 2026-04-15 05:01 | 10.79290 | 106.58713 | 2235 ft | 210 kts | 247° |
| 2026-04-15 05:01 | 10.78756 | 106.57288 | 2621 ft | 222 kts | 247° |
| 2026-04-15 05:01 | 10.78184 | 106.55758 | 2890 ft | 242 kts | 248° |
| 2026-04-15 05:01 | 10.77589 | 106.54079 | 3201 ft | 261 kts | 255° |
| 2026-04-15 05:02 | 10.77530 | 106.52207 | 3691 ft | 272 kts | 282° |
| 2026-04-15 05:02 | 10.78293 | 106.50443 | 4301 ft | 275 kts | 304° |
| 2026-04-15 05:02 | 10.79439 | 106.48901 | 4965 ft | 277 kts | 308° |
| 2026-04-15 05:02 | 10.80642 | 106.47352 | 5613 ft | 279 kts | 309° |
| 2026-04-15 05:03 | 10.81841 | 106.45779 | 6221 ft | 282 kts | 308° |
| 2026-04-15 05:03 | 10.83039 | 106.44182 | 6781 ft | 286 kts | 308° |
| 2026-04-15 05:03 | 10.84248 | 106.42555 | 7350 ft | 289 kts | 308° |
| 2026-04-15 05:03 | 10.85451 | 106.40927 | 7947 ft | 291 kts | 307° |
| 2026-04-15 05:04 | 10.86667 | 106.39281 | 8548 ft | 292 kts | 307° |
| 2026-04-15 05:04 | 10.87894 | 106.37616 | 9126 ft | 294 kts | 307° |
| 2026-04-15 05:04 | 10.89123 | 106.35939 | 9693 ft | 296 kts | 307° |
| 2026-04-15 05:04 | 10.90368 | 106.34241 | 10125 ft | 303 kts | 307° |
| 2026-04-15 05:05 | 10.91640 | 106.32505 | 10360 ft | 316 kts | 307° |
| 2026-04-15 05:05 | 10.92983 | 106.30667 | 10555 ft | 330 kts | 307° |
| 2026-04-15 05:05 | 10.94384 | 106.28752 | 10895 ft | 339 kts | 307° |
| 2026-04-15 05:05 | 10.95800 | 106.26813 | 11393 ft | 341 kts | 307° |
| 2026-04-15 05:06 | 10.97207 | 106.24887 | 11923 ft | 344 kts | 307° |
| 2026-04-15 05:06 | 10.98637 | 106.22924 | 12459 ft | 346 kts | 307° |
| 2026-04-15 05:06 | 11.00084 | 106.20945 | 12994 ft | 348 kts | 307° |
| 2026-04-15 05:06 | 11.01527 | 106.18948 | 13507 ft | 351 kts | 304° |
| 2026-04-15 05:07 | 11.02669 | 106.16740 | 13981 ft | 354 kts | 293° |
| 2026-04-15 05:07 | 11.03583 | 106.14423 | 14439 ft | 357 kts | 291° |
| 2026-04-15 05:07 | 11.04493 | 106.12051 | 14885 ft | 360 kts | 292° |
| 2026-04-15 05:07 | 11.05417 | 106.09668 | 15331 ft | 363 kts | 292° |
| 2026-04-15 05:08 | 11.06356 | 106.07263 | 15771 ft | 366 kts | 292° |
| 2026-04-15 05:08 | 11.07293 | 106.04875 | 16209 ft | 369 kts | 292° |
| 2026-04-15 05:08 | 11.08248 | 106.02438 | 16643 ft | 372 kts | 292° |
| 2026-04-15 05:08 | 11.09213 | 105.99982 | 17080 ft | 375 kts | 292° |
| 2026-04-15 05:09 | 11.10178 | 105.97503 | 17493 ft | 378 kts | 291° |
| 2026-04-15 05:09 | 11.10789 | 105.94887 | 17882 ft | 383 kts | 275° |
| 2026-04-15 05:09 | 11.10664 | 105.92170 | 18279 ft | 386 kts | 263° |
| 2026-04-15 05:09 | 11.10258 | 105.89488 | 18627 ft | 389 kts | 261° |
| 2026-04-15 05:10 | 11.09818 | 105.86758 | 18975 ft | 391 kts | 261° |
| 2026-04-15 05:10 | 11.09392 | 105.84015 | 19373 ft | 392 kts | 261° |
| 2026-04-15 05:10 | 11.08978 | 105.81267 | 19761 ft | 394 kts | 261° |
| 2026-04-15 05:10 | 11.08572 | 105.78495 | 20150 ft | 395 kts | 261° |
| 2026-04-15 05:11 | 11.08171 | 105.75725 | 20528 ft | 397 kts | 261° |
| 2026-04-15 05:11 | 11.07772 | 105.72932 | 20881 ft | 399 kts | 261° |
| 2026-04-15 05:11 | 11.07429 | 105.70119 | 21248 ft | 401 kts | 266° |
| 2026-04-15 05:11 | 11.07611 | 105.67280 | 21583 ft | 404 kts | 281° |
| 2026-04-15 05:12 | 11.08407 | 105.64530 | 21941 ft | 406 kts | 289° |
| 2026-04-15 05:12 | 11.09373 | 105.61824 | 22271 ft | 408 kts | 290° |
| 2026-04-15 05:12 | 11.10369 | 105.59103 | 22604 ft | 411 kts | 290° |
| 2026-04-15 05:12 | 11.11362 | 105.56368 | 22976 ft | 412 kts | 289° |
| 2026-04-15 05:13 | 11.12323 | 105.53652 | 23307 ft | 414 kts | 289° |
| 2026-04-15 05:13 | 11.13306 | 105.50852 | 23617 ft | 416 kts | 289° |
| 2026-04-15 05:13 | 11.14268 | 105.48109 | 23895 ft | 417 kts | 289° |
| 2026-04-15 05:13 | 11.15241 | 105.45316 | 24192 ft | 419 kts | 289° |
| 2026-04-15 05:14 | 11.16213 | 105.42515 | 24483 ft | 420 kts | 289° |
| 2026-04-15 05:14 | 11.17189 | 105.39704 | 24760 ft | 422 kts | 289° |
| 2026-04-15 05:14 | 11.18168 | 105.36886 | 25018 ft | 424 kts | 289° |
| 2026-04-15 05:14 | 11.19157 | 105.34044 | 25289 ft | 425 kts | 289° |
| 2026-04-15 05:15 | 11.20145 | 105.31204 | 25563 ft | 427 kts | 289° |
| 2026-04-15 05:15 | 11.21142 | 105.28344 | 25846 ft | 428 kts | 289° |
| 2026-04-15 05:15 | 11.22126 | 105.25509 | 26122 ft | 429 kts | 289° |
| 2026-04-15 05:15 | 11.23124 | 105.22641 | 26384 ft | 430 kts | 289° |
| 2026-04-15 05:16 | 11.24121 | 105.19762 | 26647 ft | 431 kts | 289° |
| 2026-04-15 05:16 | 11.25095 | 105.16946 | 26898 ft | 433 kts | 289° |
| 2026-04-15 05:16 | 11.26119 | 105.13981 | 27148 ft | 434 kts | 289° |
| 2026-04-15 05:16 | 11.27126 | 105.11073 | 27404 ft | 435 kts | 289° |
| 2026-04-15 05:17 | 11.28135 | 105.08157 | 27656 ft | 437 kts | 289° |
| 2026-04-15 05:17 | 11.29137 | 105.05267 | 27891 ft | 438 kts | 289° |
| 2026-04-15 05:17 | 11.30153 | 105.02342 | 28128 ft | 439 kts | 289° |
| 2026-04-15 05:17 | 11.31177 | 104.99402 | 28355 ft | 441 kts | 289° |
| 2026-04-15 05:18 | 11.32197 | 104.96458 | 28580 ft | 442 kts | 289° |
| 2026-04-15 05:18 | 11.33219 | 104.93497 | 28795 ft | 443 kts | 289° |
| 2026-04-15 05:18 | 11.34325 | 104.90558 | 28938 ft | 445 kts | 295° |
| 2026-04-15 05:18 | 11.35845 | 104.87791 | 29131 ft | 447 kts | 301° |
| 2026-04-15 05:19 | 11.37499 | 104.85097 | 29332 ft | 449 kts | 302° |
| 2026-04-15 05:19 | 11.39153 | 104.82444 | 29539 ft | 450 kts | 302° |
| 2026-04-15 05:19 | 11.40833 | 104.79736 | 29736 ft | 451 kts | 302° |
| 2026-04-15 05:19 | 11.42511 | 104.77011 | 29883 ft | 454 kts | 302° |
| 2026-04-15 05:20 | 11.45855 | 104.71551 | 29880 ft | 457 kts | 302° |
| 2026-04-15 05:20 | 11.49270 | 104.65990 | 29865 ft | 468 kts | 302° |
| 2026-04-15 05:21 | 11.52757 | 104.60310 | 29864 ft | 473 kts | 302° |
| 2026-04-15 05:21 | 11.56247 | 104.54602 | 29858 ft | 474 kts | 302° |
| 2026-04-15 05:22 | 11.59742 | 104.48899 | 29854 ft | 474 kts | 302° |
| 2026-04-15 05:22 | 11.63220 | 104.43216 | 29857 ft | 474 kts | 302° |
| 2026-04-15 05:23 | 11.66714 | 104.37490 | 29859 ft | 475 kts | 302° |
| 2026-04-15 05:23 | 11.70187 | 104.31810 | 29859 ft | 475 kts | 302° |
| 2026-04-15 05:24 | 11.73681 | 104.26085 | 29855 ft | 475 kts | 302° |
| 2026-04-15 05:24 | 11.77179 | 104.20347 | 29855 ft | 475 kts | 302° |
| 2026-04-15 05:25 | 11.80681 | 104.14611 | 29859 ft | 475 kts | 302° |
| 2026-04-15 05:25 | 11.84153 | 104.08925 | 29859 ft | 475 kts | 302° |
| 2026-04-15 05:26 | 11.87646 | 104.03193 | 29869 ft | 474 kts | 301° |
| 2026-04-15 05:26 | 11.91139 | 103.97456 | 29869 ft | 475 kts | 302° |
| 2026-04-15 05:27 | 11.94624 | 103.91736 | 29867 ft | 474 kts | 302° |
| 2026-04-15 05:27 | 11.98092 | 103.86032 | 29869 ft | 474 kts | 301° |
| 2026-04-15 05:28 | 12.01570 | 103.80311 | 29875 ft | 474 kts | 301° |
| 2026-04-15 05:28 | 12.05049 | 103.74573 | 29869 ft | 474 kts | 301° |
| 2026-04-15 05:29 | 12.08522 | 103.68838 | 29874 ft | 474 kts | 301° |
| 2026-04-15 05:29 | 12.11988 | 103.63117 | 29872 ft | 474 kts | 301° |
| 2026-04-15 05:30 | 12.15461 | 103.57401 | 29864 ft | 474 kts | 301° |
| 2026-04-15 05:30 | 12.18906 | 103.51706 | 29874 ft | 474 kts | 301° |
| 2026-04-15 05:31 | 12.22374 | 103.45980 | 29865 ft | 474 kts | 301° |
| 2026-04-15 05:31 | 12.25845 | 103.40244 | 29865 ft | 474 kts | 301° |
| 2026-04-15 05:32 | 12.29311 | 103.34519 | 29869 ft | 474 kts | 301° |
| 2026-04-15 05:32 | 12.32769 | 103.28784 | 29870 ft | 474 kts | 301° |
| 2026-04-15 05:33 | 12.36213 | 103.23087 | 29872 ft | 474 kts | 301° |
| 2026-04-15 05:33 | 12.39672 | 103.17355 | 29868 ft | 474 kts | 301° |
| 2026-04-15 05:34 | 12.43133 | 103.11614 | 29871 ft | 474 kts | 301° |
| 2026-04-15 05:34 | 12.46587 | 103.05880 | 29878 ft | 474 kts | 301° |
| 2026-04-15 05:35 | 12.50015 | 103.00169 | 29879 ft | 474 kts | 301° |
| 2026-04-15 05:35 | 12.53469 | 102.94430 | 29877 ft | 474 kts | 301° |
| 2026-04-15 05:36 | 12.56349 | 102.89653 | 29879 ft | 474 kts | 301° |
| 2026-04-15 05:36 | 12.60394 | 102.82939 | 29879 ft | 474 kts | 301° |
| 2026-04-15 05:37 | 12.63833 | 102.77232 | 29884 ft | 474 kts | 301° |
| 2026-04-15 05:37 | 12.67292 | 102.71473 | 29882 ft | 474 kts | 301° |
| 2026-04-15 05:38 | 12.70741 | 102.65725 | 29887 ft | 474 kts | 301° |
| 2026-04-15 05:38 | 12.74191 | 102.59976 | 29886 ft | 474 kts | 301° |
| 2026-04-15 05:39 | 12.77601 | 102.54260 | 29876 ft | 473 kts | 300° |
| 2026-04-15 05:39 | 12.79850 | 102.49164 | 29889 ft | 473 kts | 291° |
| 2026-04-15 05:40 | 12.82226 | 102.42890 | 29884 ft | 473 kts | 290° |
| 2026-04-15 05:40 | 12.84608 | 102.36605 | 29892 ft | 473 kts | 290° |
| 2026-04-15 05:41 | 12.87378 | 102.29317 | 29894 ft | 472 kts | 290° |
| 2026-04-15 05:41 | 12.89759 | 102.23052 | 29894 ft | 472 kts | 291° |
| 2026-04-15 05:42 | 12.92147 | 102.16781 | 29884 ft | 472 kts | 290° |
| 2026-04-15 05:42 | 12.94522 | 102.10523 | 29886 ft | 471 kts | 290° |
| 2026-04-15 05:43 | 12.96883 | 102.04300 | 29899 ft | 471 kts | 291° |
| 2026-04-15 05:43 | 12.98874 | 101.99049 | 29888 ft | 471 kts | 290° |
| 2026-04-15 05:44 | 13.01226 | 101.92830 | 29895 ft | 471 kts | 290° |
| 2026-04-15 05:44 | 13.03596 | 101.86563 | 29891 ft | 471 kts | 290° |
| 2026-04-15 05:45 | 13.05969 | 101.80306 | 29888 ft | 471 kts | 290° |
| 2026-04-15 05:45 | 13.08333 | 101.74040 | 29888 ft | 471 kts | 290° |
| 2026-04-15 05:46 | 13.10696 | 101.67773 | 29882 ft | 471 kts | 290° |
| 2026-04-15 05:46 | 13.13062 | 101.61512 | 29876 ft | 471 kts | 290° |
| 2026-04-15 05:47 | 13.15430 | 101.55243 | 29880 ft | 472 kts | 290° |
| 2026-04-15 05:47 | 13.17778 | 101.49000 | 29878 ft | 472 kts | 290° |
| 2026-04-15 05:48 | 13.20140 | 101.42722 | 29876 ft | 472 kts | 290° |
| 2026-04-15 05:48 | 13.22504 | 101.36442 | 29875 ft | 472 kts | 290° |
| 2026-04-15 05:49 | 13.24873 | 101.30155 | 29892 ft | 472 kts | 290° |
| 2026-04-15 05:49 | 13.27226 | 101.23862 | 29882 ft | 473 kts | 290° |
| 2026-04-15 05:50 | 13.30020 | 101.17810 | 29879 ft | 474 kts | 304° |
| 2026-04-15 05:50 | 13.34560 | 101.12928 | 29891 ft | 474 kts | 316° |
| 2026-04-15 05:51 | 13.36978 | 101.10631 | 29887 ft | 474 kts | 316° |
| 2026-04-15 05:51 | 13.41794 | 101.05986 | 29876 ft | 475 kts | 316° |
| 2026-04-15 05:52 | 13.46548 | 101.01365 | 29878 ft | 475 kts | 316° |
| 2026-04-15 05:52 | 13.51345 | 100.96698 | 29878 ft | 475 kts | 316° |
| 2026-04-15 05:53 | 13.56146 | 100.92025 | 29879 ft | 475 kts | 316° |
| 2026-04-15 05:53 | 13.60937 | 100.87349 | 29876 ft | 475 kts | 316° |
| 2026-04-15 05:54 | 13.65731 | 100.82681 | 29877 ft | 475 kts | 316° |
| 2026-04-15 05:54 | 13.70491 | 100.78043 | 29875 ft | 475 kts | 316° |
| 2026-04-15 05:55 | 13.74825 | 100.72968 | 29868 ft | 473 kts | 300° |
| 2026-04-15 05:55 | 13.76209 | 100.69906 | 29873 ft | 472 kts | 288° |
| 2026-04-15 05:55 | 13.76968 | 100.66627 | 29886 ft | 471 kts | 279° |
| 2026-04-15 05:56 | 13.78027 | 100.59979 | 29857 ft | 471 kts | 278° |
| 2026-04-15 05:56 | 13.79106 | 100.53368 | 29849 ft | 472 kts | 279° |
| 2026-04-15 05:57 | 13.80223 | 100.46724 | 29846 ft | 472 kts | 279° |
| 2026-04-15 05:57 | 13.81352 | 100.40072 | 29845 ft | 472 kts | 279° |
| 2026-04-15 05:58 | 13.82474 | 100.33429 | 29843 ft | 472 kts | 279° |
| 2026-04-15 05:58 | 13.83601 | 100.26832 | 29838 ft | 471 kts | 279° |
| 2026-04-15 05:59 | 13.84732 | 100.20185 | 29838 ft | 471 kts | 279° |
| 2026-04-15 05:59 | 13.85848 | 100.13541 | 29837 ft | 471 kts | 279° |
| 2026-04-15 06:00 | 13.86972 | 100.06903 | 29836 ft | 471 kts | 279° |
| 2026-04-15 06:00 | 13.88085 | 100.00312 | 29835 ft | 470 kts | 279° |
| 2026-04-15 06:01 | 13.89201 | 99.93682 | 29835 ft | 470 kts | 279° |
| 2026-04-15 06:01 | 13.90304 | 99.87053 | 29828 ft | 470 kts | 279° |
| 2026-04-15 06:02 | 13.91415 | 99.80417 | 29828 ft | 470 kts | 279° |
| 2026-04-15 06:02 | 13.92510 | 99.73790 | 29828 ft | 470 kts | 279° |
| 2026-04-15 06:03 | 13.93586 | 99.67197 | 29824 ft | 470 kts | 279° |
| 2026-04-15 06:03 | 13.94683 | 99.60572 | 29828 ft | 470 kts | 279° |
| 2026-04-15 06:04 | 13.95785 | 99.53940 | 29826 ft | 470 kts | 279° |
| 2026-04-15 06:04 | 13.96899 | 99.47319 | 29826 ft | 470 kts | 279° |
| 2026-04-15 06:05 | 13.97988 | 99.40739 | 29821 ft | 469 kts | 279° |
| 2026-04-15 06:05 | 13.99075 | 99.34108 | 29832 ft | 469 kts | 278° |
| 2026-04-15 06:06 | 14.00168 | 99.27490 | 29834 ft | 469 kts | 279° |
| 2026-04-15 06:06 | 14.01269 | 99.20864 | 29836 ft | 469 kts | 279° |
| 2026-04-15 06:07 | 14.02354 | 99.14285 | 29836 ft | 469 kts | 279° |
| 2026-04-15 06:07 | 14.03445 | 99.07671 | 29843 ft | 469 kts | 278° |
| 2026-04-15 06:08 | 14.04502 | 99.01046 | 29856 ft | 468 kts | 278° |
| 2026-04-15 06:08 | 14.05313 | 98.94404 | 29864 ft | 468 kts | 273° |
| 2026-04-15 06:09 | 14.05745 | 98.87716 | 29867 ft | 468 kts | 273° |
| 2026-04-15 06:09 | 14.06175 | 98.81041 | 29871 ft | 467 kts | 273° |
| 2026-04-15 06:10 | 14.06606 | 98.74403 | 29874 ft | 467 kts | 273° |
| 2026-04-15 06:10 | 14.07031 | 98.67730 | 29876 ft | 467 kts | 273° |
| 2026-04-15 06:11 | 14.07456 | 98.61050 | 29883 ft | 467 kts | 273° |
| 2026-04-15 06:11 | 14.07902 | 98.54387 | 29882 ft | 466 kts | 273° |
| 2026-04-15 06:12 | 14.08335 | 98.47719 | 29885 ft | 466 kts | 273° |
| 2026-04-15 06:12 | 14.08762 | 98.41051 | 29887 ft | 466 kts | 273° |
| 2026-04-15 06:13 | 14.09185 | 98.34375 | 30158 ft | 468 kts | 273° |
| 2026-04-15 06:13 | 14.09398 | 98.31043 | 30459 ft | 465 kts | 272° |
| 2026-04-15 06:13 | 14.09593 | 98.27719 | 30731 ft | 464 kts | 272° |
| 2026-04-15 06:13 | 14.09791 | 98.24408 | 30928 ft | 464 kts | 273° |
| 2026-04-15 06:14 | 14.10260 | 98.21115 | 31096 ft | 466 kts | 283° |
| 2026-04-15 06:14 | 14.11352 | 98.17981 | 31294 ft | 467 kts | 294° |
| 2026-04-15 06:14 | 14.12843 | 98.15008 | 31497 ft | 467 kts | 297° |
| 2026-04-15 06:14 | 14.14385 | 98.12074 | 31705 ft | 466 kts | 297° |
| 2026-04-15 06:15 | 14.15926 | 98.09135 | 31884 ft | 466 kts | 297° |
| 2026-04-15 06:15 | 14.18976 | 98.03266 | 31910 ft | 464 kts | 296° |
| 2026-04-15 06:16 | 14.22006 | 97.97385 | 31893 ft | 464 kts | 296° |
| 2026-04-15 06:16 | 14.25026 | 97.91508 | 31890 ft | 464 kts | 296° |
| 2026-04-15 06:17 | 14.28030 | 97.85664 | 31896 ft | 464 kts | 296° |
| 2026-04-15 06:17 | 14.31055 | 97.79792 | 31891 ft | 464 kts | 296° |
| 2026-04-15 06:18 | 14.34099 | 97.73920 | 31895 ft | 464 kts | 297° |
| 2026-04-15 06:18 | 14.37132 | 97.68052 | 31895 ft | 464 kts | 297° |
| 2026-04-15 06:19 | 14.40154 | 97.62167 | 31893 ft | 464 kts | 296° |
| 2026-04-15 06:19 | 14.43144 | 97.56328 | 31889 ft | 464 kts | 296° |
| 2026-04-15 06:20 | 14.46156 | 97.50440 | 31878 ft | 464 kts | 296° |
| 2026-04-15 06:20 | 14.49167 | 97.44562 | 31890 ft | 464 kts | 296° |
| 2026-04-15 06:21 | 14.52173 | 97.38673 | 31890 ft | 463 kts | 296° |
| 2026-04-15 06:21 | 14.55155 | 97.32834 | 31886 ft | 463 kts | 296° |
| 2026-04-15 06:22 | 14.58154 | 97.26945 | 31892 ft | 463 kts | 296° |
| 2026-04-15 06:22 | 14.61154 | 97.21066 | 31893 ft | 463 kts | 296° |
| 2026-04-15 06:23 | 14.64153 | 97.15180 | 31889 ft | 463 kts | 296° |
| 2026-04-15 06:23 | 14.67149 | 97.09303 | 31892 ft | 463 kts | 296° |
| 2026-04-15 06:24 | 14.70124 | 97.03456 | 31897 ft | 462 kts | 296° |
| 2026-04-15 06:24 | 14.73115 | 96.97583 | 31892 ft | 462 kts | 296° |
| 2026-04-15 06:25 | 14.76106 | 96.91701 | 31893 ft | 462 kts | 296° |
| 2026-04-15 06:25 | 14.79088 | 96.85818 | 31890 ft | 462 kts | 296° |
| 2026-04-15 06:26 | 14.82048 | 96.79980 | 31901 ft | 462 kts | 296° |
| 2026-04-15 06:26 | 14.85022 | 96.74108 | 31897 ft | 461 kts | 296° |
| 2026-04-15 06:27 | 14.87997 | 96.68227 | 31893 ft | 461 kts | 296° |
| 2026-04-15 06:27 | 14.90969 | 96.62359 | 31885 ft | 461 kts | 296° |
| 2026-04-15 06:28 | 14.93942 | 96.56481 | 31894 ft | 461 kts | 296° |
| 2026-04-15 06:28 | 14.96887 | 96.50652 | 31885 ft | 461 kts | 296° |
| 2026-04-15 06:29 | 14.99852 | 96.44779 | 31891 ft | 460 kts | 296° |
| 2026-04-15 06:29 | 15.02811 | 96.38918 | 31899 ft | 460 kts | 296° |
| 2026-04-15 06:30 | 15.05774 | 96.33050 | 31884 ft | 460 kts | 296° |
| 2026-04-15 06:30 | 15.08722 | 96.27188 | 31885 ft | 459 kts | 296° |
| 2026-04-15 06:31 | 15.11652 | 96.21365 | 31897 ft | 459 kts | 296° |
| 2026-04-15 06:31 | 15.14601 | 96.15496 | 31897 ft | 459 kts | 296° |
| 2026-04-15 06:32 | 15.17546 | 96.09636 | 31892 ft | 459 kts | 296° |
| 2026-04-15 06:32 | 15.20491 | 96.03769 | 31883 ft | 459 kts | 296° |
| 2026-04-15 06:33 | 15.23436 | 95.97908 | 31896 ft | 459 kts | 296° |
| 2026-04-15 06:33 | 15.26359 | 95.92081 | 31895 ft | 459 kts | 296° |
| 2026-04-15 06:34 | 15.29295 | 95.86223 | 31883 ft | 459 kts | 296° |
| 2026-04-15 06:34 | 15.32232 | 95.80355 | 31885 ft | 458 kts | 296° |
| 2026-04-15 06:35 | 15.35160 | 95.74495 | 31886 ft | 458 kts | 296° |
| 2026-04-15 06:35 | 15.38075 | 95.68668 | 31893 ft | 458 kts | 296° |
| 2026-04-15 06:36 | 15.41000 | 95.62806 | 31895 ft | 458 kts | 296° |
| 2026-04-15 06:36 | 15.43925 | 95.56937 | 31896 ft | 458 kts | 296° |
| 2026-04-15 06:37 | 15.46848 | 95.51076 | 31884 ft | 458 kts | 296° |
| 2026-04-15 06:37 | 15.49773 | 95.45205 | 31885 ft | 458 kts | 296° |
| 2026-04-15 06:38 | 15.52692 | 95.39345 | 31889 ft | 458 kts | 296° |
| 2026-04-15 06:38 | 15.55612 | 95.33476 | 31888 ft | 458 kts | 296° |
| 2026-04-15 06:39 | 15.58519 | 95.27612 | 31885 ft | 457 kts | 296° |
| 2026-04-15 06:39 | 15.61428 | 95.21742 | 31883 ft | 457 kts | 296° |
| 2026-04-15 06:40 | 15.64336 | 95.15872 | 31879 ft | 457 kts | 296° |
| 2026-04-15 06:40 | 15.67219 | 95.10050 | 31873 ft | 457 kts | 296° |
| 2026-04-15 06:41 | 15.70125 | 95.04183 | 31871 ft | 457 kts | 296° |
| 2026-04-15 06:41 | 15.73017 | 94.98321 | 31876 ft | 457 kts | 296° |
| 2026-04-15 06:42 | 15.75917 | 94.92455 | 31873 ft | 456 kts | 296° |
| 2026-04-15 06:42 | 15.78787 | 94.86636 | 31874 ft | 456 kts | 296° |
| 2026-04-15 06:43 | 15.81682 | 94.80776 | 31871 ft | 456 kts | 296° |
| 2026-04-15 06:43 | 15.84579 | 94.74925 | 31876 ft | 455 kts | 296° |
| 2026-04-15 06:44 | 15.87471 | 94.69081 | 31871 ft | 455 kts | 296° |
| 2026-04-15 06:44 | 15.90359 | 94.63225 | 31868 ft | 455 kts | 296° |
| 2026-04-15 06:45 | 15.93216 | 94.57415 | 31872 ft | 455 kts | 296° |
| 2026-04-15 06:45 | 15.96091 | 94.51568 | 31874 ft | 454 kts | 296° |
| 2026-04-15 06:46 | 15.98967 | 94.45716 | 31875 ft | 454 kts | 296° |
| 2026-04-15 06:46 | 16.01837 | 94.39864 | 31876 ft | 454 kts | 296° |
| 2026-04-15 06:47 | 16.04704 | 94.34019 | 31876 ft | 454 kts | 296° |
| 2026-04-15 06:47 | 16.07552 | 94.28205 | 31882 ft | 454 kts | 296° |
| 2026-04-15 06:48 | 16.10411 | 94.22360 | 31878 ft | 454 kts | 295° |
| 2026-04-15 06:48 | 16.12789 | 94.16294 | 31882 ft | 453 kts | 289° |
| 2026-04-15 06:49 | 16.14992 | 94.10166 | 31882 ft | 453 kts | 289° |
| 2026-04-15 06:49 | 16.17204 | 94.04033 | 31883 ft | 453 kts | 289° |
| 2026-04-15 06:50 | 16.20520 | 93.94842 | 31883 ft | 452 kts | 289° |
| 2026-04-15 06:50 | 16.22713 | 93.88750 | 31884 ft | 452 kts | 289° |
| 2026-04-15 06:51 | 16.24917 | 93.82625 | 31883 ft | 452 kts | 289° |
| 2026-04-15 06:51 | 16.27124 | 93.76493 | 31882 ft | 452 kts | 289° |
| 2026-04-15 06:52 | 16.29324 | 93.70369 | 31884 ft | 452 kts | 289° |
| 2026-04-15 06:52 | 16.31525 | 93.64237 | 31886 ft | 452 kts | 289° |
| 2026-04-15 06:53 | 16.33719 | 93.58115 | 31883 ft | 452 kts | 289° |
| 2026-04-15 06:53 | 16.35919 | 93.51984 | 31887 ft | 452 kts | 289° |
| 2026-04-15 06:54 | 16.38091 | 93.45901 | 31889 ft | 452 kts | 289° |
| 2026-04-15 06:54 | 16.40282 | 93.39771 | 31888 ft | 451 kts | 289° |
| 2026-04-15 06:55 | 16.42465 | 93.33649 | 31887 ft | 451 kts | 289° |
| 2026-04-15 06:55 | 16.44651 | 93.27518 | 31882 ft | 451 kts | 289° |
| 2026-04-15 06:56 | 16.46838 | 93.21388 | 31882 ft | 451 kts | 289° |
| 2026-04-15 06:56 | 16.49001 | 93.15311 | 31886 ft | 451 kts | 289° |
| 2026-04-15 06:57 | 16.51180 | 93.09179 | 31887 ft | 451 kts | 289° |
| 2026-04-15 06:57 | 16.53355 | 93.03054 | 31888 ft | 451 kts | 289° |
| 2026-04-15 06:58 | 16.55515 | 92.96962 | 31888 ft | 451 kts | 289° |
| 2026-04-15 06:58 | 16.57686 | 92.90839 | 31890 ft | 451 kts | 289° |
| 2026-04-15 06:59 | 16.59851 | 92.84713 | 31886 ft | 451 kts | 289° |
| 2026-04-15 06:59 | 16.62017 | 92.78578 | 31885 ft | 450 kts | 289° |
| 2026-04-15 07:00 | 16.64174 | 92.72452 | 31883 ft | 450 kts | 289° |
| 2026-04-15 07:00 | 16.66330 | 92.66318 | 31881 ft | 450 kts | 289° |
| 2026-04-15 07:01 | 16.68487 | 92.60192 | 31885 ft | 450 kts | 289° |
| 2026-04-15 07:01 | 16.70649 | 92.54109 | 31881 ft | 450 kts | 289° |
| 2026-04-15 07:02 | 16.72810 | 92.47980 | 31880 ft | 450 kts | 289° |
| 2026-04-15 07:02 | 16.74954 | 92.41852 | 31876 ft | 450 kts | 289° |
| 2026-04-15 07:03 | 16.77102 | 92.35719 | 31881 ft | 450 kts | 289° |
| 2026-04-15 07:03 | 16.79246 | 92.29590 | 31881 ft | 449 kts | 289° |
| 2026-04-15 07:04 | 16.81383 | 92.23460 | 31880 ft | 449 kts | 289° |
| 2026-04-15 07:04 | 16.83538 | 92.17339 | 31874 ft | 449 kts | 289° |
| 2026-04-15 07:05 | 16.85671 | 92.11261 | 31873 ft | 449 kts | 289° |
| 2026-04-15 07:05 | 16.87806 | 92.05139 | 31872 ft | 449 kts | 289° |
| 2026-04-15 07:06 | 16.89946 | 91.99019 | 31879 ft | 449 kts | 289° |
| 2026-04-15 07:06 | 16.92110 | 91.92907 | 31878 ft | 449 kts | 289° |
| 2026-04-15 07:07 | 16.94274 | 91.86795 | 31877 ft | 449 kts | 290° |
| 2026-04-15 07:07 | 16.96445 | 91.80687 | 31877 ft | 448 kts | 290° |
| 2026-04-15 07:08 | 16.98614 | 91.74572 | 31875 ft | 448 kts | 290° |
| 2026-04-15 07:08 | 17.00778 | 91.68465 | 31875 ft | 448 kts | 290° |
| 2026-04-15 07:09 | 17.02934 | 91.62358 | 31876 ft | 448 kts | 290° |
| 2026-04-15 07:09 | 17.05089 | 91.56252 | 31873 ft | 448 kts | 290° |
| 2026-04-15 07:10 | 17.07242 | 91.50147 | 31870 ft | 448 kts | 290° |
| 2026-04-15 07:10 | 17.09394 | 91.44045 | 31870 ft | 447 kts | 290° |
| 2026-04-15 07:11 | 17.11551 | 91.37946 | 31868 ft | 447 kts | 290° |
| 2026-04-15 07:11 | 17.13698 | 91.31847 | 31870 ft | 447 kts | 290° |
| 2026-04-15 07:12 | 17.15843 | 91.25750 | 31868 ft | 447 kts | 290° |
| 2026-04-15 07:12 | 17.17625 | 91.20688 | 31869 ft | 447 kts | 289° |
| 2026-04-15 07:13 | 17.19759 | 91.14586 | 31866 ft | 447 kts | 290° |
| 2026-04-15 07:13 | 17.21897 | 91.08485 | 31869 ft | 447 kts | 290° |
| 2026-04-15 07:14 | 17.24036 | 91.02387 | 31867 ft | 447 kts | 290° |
| 2026-04-15 07:14 | 17.26173 | 90.96286 | 31865 ft | 447 kts | 290° |
| 2026-04-15 07:15 | 17.28304 | 90.90186 | 31866 ft | 446 kts | 289° |
| 2026-04-15 07:15 | 17.30433 | 90.84089 | 31867 ft | 446 kts | 289° |
| 2026-04-15 07:16 | 17.32558 | 90.77989 | 31862 ft | 446 kts | 289° |
| 2026-04-15 07:16 | 17.34683 | 90.71887 | 31865 ft | 446 kts | 289° |
| 2026-04-15 07:17 | 17.36803 | 90.65786 | 31867 ft | 446 kts | 289° |
| 2026-04-15 07:17 | 17.38921 | 90.59685 | 31864 ft | 446 kts | 289° |
| 2026-04-15 07:18 | 17.41035 | 90.53583 | 31861 ft | 446 kts | 289° |
| 2026-04-15 07:18 | 17.43065 | 90.47404 | 31861 ft | 446 kts | 288° |
| 2026-04-15 07:19 | 17.45057 | 90.41308 | 31861 ft | 445 kts | 288° |
| 2026-04-15 07:19 | 17.47068 | 90.35173 | 31855 ft | 445 kts | 288° |
| 2026-04-15 07:20 | 17.49075 | 90.29035 | 31856 ft | 445 kts | 288° |
| 2026-04-15 07:20 | 17.51086 | 90.22899 | 31858 ft | 445 kts | 288° |
| 2026-04-15 07:21 | 17.53094 | 90.16761 | 31851 ft | 445 kts | 288° |
| 2026-04-15 07:21 | 17.55111 | 90.10580 | 31852 ft | 445 kts | 288° |
| 2026-04-15 07:22 | 17.57100 | 90.04476 | 31853 ft | 445 kts | 288° |
| 2026-04-15 07:22 | 17.59101 | 89.98338 | 31851 ft | 445 kts | 288° |
| 2026-04-15 07:23 | 17.61100 | 89.92201 | 31849 ft | 445 kts | 288° |
| 2026-04-15 07:23 | 17.63096 | 89.86060 | 31850 ft | 445 kts | 288° |
| 2026-04-15 07:24 | 17.65087 | 89.79918 | 31849 ft | 445 kts | 288° |
| 2026-04-15 07:24 | 17.67081 | 89.73776 | 31848 ft | 445 kts | 288° |
| 2026-04-15 07:25 | 17.69086 | 89.67593 | 31850 ft | 445 kts | 288° |
| 2026-04-15 07:25 | 17.71060 | 89.61491 | 31846 ft | 445 kts | 288° |
| 2026-04-15 07:26 | 17.73045 | 89.55345 | 31849 ft | 445 kts | 288° |
| 2026-04-15 07:26 | 17.75040 | 89.49154 | 31847 ft | 445 kts | 288° |
| 2026-04-15 07:27 | 17.77023 | 89.43002 | 31843 ft | 445 kts | 288° |
| 2026-04-15 07:27 | 17.79001 | 89.36849 | 31845 ft | 445 kts | 288° |
| 2026-04-15 07:28 | 17.80983 | 89.30696 | 31841 ft | 445 kts | 288° |
| 2026-04-15 07:28 | 17.82962 | 89.24543 | 31841 ft | 445 kts | 288° |
| 2026-04-15 07:29 | 17.84937 | 89.18387 | 31842 ft | 445 kts | 288° |
| 2026-04-15 07:29 | 17.86909 | 89.12236 | 31842 ft | 445 kts | 288° |
| 2026-04-15 07:30 | 17.88880 | 89.06082 | 31838 ft | 445 kts | 288° |
| 2026-04-15 07:30 | 17.90848 | 88.99921 | 31838 ft | 445 kts | 288° |
| 2026-04-15 07:31 | 17.92798 | 88.93808 | 31835 ft | 445 kts | 288° |
| 2026-04-15 07:31 | 17.94763 | 88.87650 | 31834 ft | 445 kts | 288° |
| 2026-04-15 07:32 | 17.96738 | 88.81494 | 31831 ft | 445 kts | 288° |
| 2026-04-15 07:32 | 17.98754 | 88.75359 | 31830 ft | 445 kts | 288° |
| 2026-04-15 07:33 | 18.00746 | 88.69253 | 31832 ft | 444 kts | 288° |
| 2026-04-15 07:33 | 18.02752 | 88.63118 | 31832 ft | 444 kts | 288° |
| 2026-04-15 07:34 | 18.04756 | 88.56974 | 31832 ft | 444 kts | 288° |
| 2026-04-15 07:34 | 18.06753 | 88.50838 | 31829 ft | 444 kts | 288° |
| 2026-04-15 07:35 | 18.08748 | 88.44698 | 31830 ft | 444 kts | 288° |
| 2026-04-15 07:35 | 18.10741 | 88.38566 | 31829 ft | 444 kts | 288° |
| 2026-04-15 07:36 | 18.12717 | 88.32469 | 31823 ft | 443 kts | 288° |
| 2026-04-15 07:36 | 18.14702 | 88.26345 | 31826 ft | 443 kts | 288° |
| 2026-04-15 07:37 | 18.16688 | 88.20211 | 31822 ft | 443 kts | 288° |
| 2026-04-15 07:37 | 18.18666 | 88.14087 | 31819 ft | 442 kts | 288° |
| 2026-04-15 07:38 | 18.20630 | 88.08001 | 31818 ft | 442 kts | 288° |
| 2026-04-15 07:38 | 18.22604 | 88.01884 | 31818 ft | 442 kts | 288° |
| 2026-04-15 07:39 | 18.24575 | 87.95760 | 31821 ft | 442 kts | 288° |
| 2026-04-15 07:39 | 18.26541 | 87.89647 | 31818 ft | 441 kts | 288° |
| 2026-04-15 07:40 | 18.28492 | 87.83570 | 31814 ft | 441 kts | 288° |
| 2026-04-15 07:40 | 18.30494 | 87.77475 | 31820 ft | 441 kts | 288° |
| 2026-04-15 07:41 | 18.32513 | 87.71379 | 31815 ft | 441 kts | 288° |
| 2026-04-15 07:41 | 18.34521 | 87.65283 | 31814 ft | 440 kts | 288° |
| 2026-04-15 07:42 | 18.36523 | 87.59196 | 31813 ft | 440 kts | 288° |
| 2026-04-15 07:42 | 18.38507 | 87.53154 | 31812 ft | 440 kts | 288° |
| 2026-04-15 07:43 | 18.40506 | 87.47067 | 31809 ft | 439 kts | 288° |
| 2026-04-15 07:43 | 18.42498 | 87.40991 | 31807 ft | 439 kts | 288° |
| 2026-04-15 07:44 | 18.44484 | 87.34910 | 31808 ft | 439 kts | 288° |
| 2026-04-15 07:44 | 18.46464 | 87.28869 | 31807 ft | 439 kts | 288° |
| 2026-04-15 07:45 | 18.48447 | 87.22794 | 31807 ft | 439 kts | 288° |
| 2026-04-15 07:45 | 18.50429 | 87.16713 | 31802 ft | 439 kts | 288° |
| 2026-04-15 07:46 | 18.52408 | 87.10643 | 31808 ft | 438 kts | 288° |
| 2026-04-15 07:46 | 18.54385 | 87.04566 | 31807 ft | 438 kts | 288° |
| 2026-04-15 07:47 | 18.56343 | 86.98541 | 31799 ft | 438 kts | 288° |
| 2026-04-15 07:47 | 18.58316 | 86.92468 | 31799 ft | 438 kts | 288° |
| 2026-04-15 07:48 | 18.60276 | 86.86403 | 31800 ft | 437 kts | 288° |
| 2026-04-15 07:48 | 18.62241 | 86.80331 | 31799 ft | 437 kts | 288° |
| 2026-04-15 07:49 | 18.64200 | 86.74267 | 31798 ft | 437 kts | 288° |
| 2026-04-15 07:49 | 18.66151 | 86.68238 | 31799 ft | 437 kts | 288° |
| 2026-04-15 07:50 | 18.68109 | 86.62181 | 31803 ft | 437 kts | 288° |
| 2026-04-15 07:50 | 18.70064 | 86.56117 | 31796 ft | 437 kts | 288° |
| 2026-04-15 07:51 | 18.72014 | 86.50058 | 31793 ft | 436 kts | 288° |
| 2026-04-15 07:51 | 18.73953 | 86.44032 | 31793 ft | 436 kts | 288° |
| 2026-04-15 07:52 | 18.75898 | 86.37972 | 31795 ft | 436 kts | 288° |
| 2026-04-15 07:52 | 18.77845 | 86.31904 | 31789 ft | 436 kts | 288° |
| 2026-04-15 07:53 | 18.79782 | 86.25844 | 31790 ft | 436 kts | 288° |
| 2026-04-15 07:53 | 18.81705 | 86.19816 | 31793 ft | 436 kts | 288° |
| 2026-04-15 07:54 | 18.83632 | 86.13754 | 31790 ft | 436 kts | 288° |
| 2026-04-15 07:54 | 18.85564 | 86.07683 | 31785 ft | 436 kts | 288° |
| 2026-04-15 07:55 | 18.87502 | 86.01626 | 31785 ft | 436 kts | 288° |
| 2026-04-15 07:56 | 18.90394 | 85.92567 | 31783 ft | 436 kts | 288° |
| 2026-04-15 07:56 | 18.92322 | 85.86509 | 31784 ft | 435 kts | 288° |
| 2026-04-15 07:57 | 18.94271 | 85.80452 | 31777 ft | 435 kts | 288° |
| 2026-04-15 07:57 | 18.96245 | 85.74412 | 31780 ft | 435 kts | 288° |
| 2026-04-15 07:58 | 18.98201 | 85.68404 | 31770 ft | 435 kts | 288° |
| 2026-04-15 07:58 | 19.00167 | 85.62363 | 31767 ft | 435 kts | 288° |
| 2026-04-15 07:59 | 19.02128 | 85.56309 | 31767 ft | 435 kts | 288° |
| 2026-04-15 07:59 | 19.04084 | 85.50269 | 31766 ft | 435 kts | 288° |
| 2026-04-15 08:00 | 19.06032 | 85.44216 | 31759 ft | 435 kts | 288° |
| 2026-04-15 08:00 | 19.07971 | 85.38214 | 31759 ft | 434 kts | 288° |
| 2026-04-15 08:01 | 19.09926 | 85.32169 | 31758 ft | 434 kts | 288° |
| 2026-04-15 08:01 | 19.11861 | 85.26126 | 31757 ft | 434 kts | 287° |
| 2026-04-15 08:02 | 19.13675 | 85.20037 | 31753 ft | 434 kts | 287° |
| 2026-04-15 08:02 | 19.15461 | 85.13997 | 31753 ft | 434 kts | 287° |
| 2026-04-15 08:03 | 19.17263 | 85.07910 | 31753 ft | 433 kts | 287° |
| 2026-04-15 08:03 | 19.19055 | 85.01831 | 31744 ft | 433 kts | 287° |
| 2026-04-15 08:04 | 19.20853 | 84.95748 | 31745 ft | 433 kts | 287° |
| 2026-04-15 08:04 | 19.22642 | 84.89677 | 31739 ft | 432 kts | 287° |
| 2026-04-15 08:05 | 19.24418 | 84.83637 | 31744 ft | 432 kts | 287° |
| 2026-04-15 08:05 | 19.26202 | 84.77573 | 31744 ft | 432 kts | 287° |
| 2026-04-15 08:06 | 19.27979 | 84.71499 | 31751 ft | 432 kts | 287° |
| 2026-04-15 08:06 | 19.29760 | 84.65425 | 31759 ft | 432 kts | 287° |
| 2026-04-15 08:07 | 19.31527 | 84.59395 | 31756 ft | 432 kts | 287° |
| 2026-04-15 08:07 | 19.33301 | 84.53319 | 31767 ft | 432 kts | 287° |
| 2026-04-15 08:08 | 19.35067 | 84.47251 | 31768 ft | 431 kts | 287° |
| 2026-04-15 08:08 | 19.36842 | 84.41175 | 31776 ft | 432 kts | 287° |
| 2026-04-15 08:09 | 19.38596 | 84.35142 | 31787 ft | 432 kts | 287° |
| 2026-04-15 08:09 | 19.40366 | 84.29063 | 31791 ft | 432 kts | 287° |
| 2026-04-15 08:10 | 19.42131 | 84.22971 | 31802 ft | 432 kts | 287° |
| 2026-04-15 08:10 | 19.44190 | 84.16994 | 31798 ft | 433 kts | 291° |
| 2026-04-15 08:11 | 19.46355 | 84.11084 | 31801 ft | 433 kts | 291° |
| 2026-04-15 08:11 | 19.48527 | 84.05138 | 31802 ft | 433 kts | 291° |
| 2026-04-15 08:12 | 19.50703 | 83.99165 | 31838 ft | 434 kts | 291° |
| 2026-04-15 08:12 | 19.51793 | 83.96176 | 32025 ft | 435 kts | 291° |
| 2026-04-15 08:12 | 19.52883 | 83.93186 | 32259 ft | 434 kts | 290° |
| 2026-04-15 08:12 | 19.53970 | 83.90198 | 32494 ft | 434 kts | 290° |
| 2026-04-15 08:13 | 19.55039 | 83.87249 | 32766 ft | 432 kts | 290° |
| 2026-04-15 08:13 | 19.56115 | 83.84283 | 33035 ft | 431 kts | 290° |
| 2026-04-15 08:13 | 19.57190 | 83.81319 | 33289 ft | 430 kts | 290° |
| 2026-04-15 08:13 | 19.58264 | 83.78363 | 33519 ft | 429 kts | 290° |
| 2026-04-15 08:14 | 19.59339 | 83.75402 | 33724 ft | 429 kts | 290° |
| 2026-04-15 08:14 | 19.61480 | 83.69493 | 33824 ft | 428 kts | 290° |
| 2026-04-15 08:15 | 19.63601 | 83.63629 | 33802 ft | 428 kts | 290° |
| 2026-04-15 08:15 | 19.65732 | 83.57725 | 33789 ft | 428 kts | 290° |
| 2026-04-15 08:16 | 19.67867 | 83.51803 | 33793 ft | 428 kts | 290° |
| 2026-04-15 08:16 | 19.69978 | 83.45953 | 33798 ft | 427 kts | 290° |
| 2026-04-15 08:17 | 19.72103 | 83.40056 | 33795 ft | 427 kts | 290° |
| 2026-04-15 08:17 | 19.74219 | 83.34159 | 33789 ft | 427 kts | 290° |
| 2026-04-15 08:18 | 19.76338 | 83.28276 | 33784 ft | 427 kts | 290° |
| 2026-04-15 08:18 | 19.78446 | 83.22378 | 33785 ft | 426 kts | 290° |
| 2026-04-15 08:19 | 19.80545 | 83.16531 | 33777 ft | 426 kts | 290° |
| 2026-04-15 08:19 | 19.82658 | 83.10640 | 33780 ft | 426 kts | 290° |
| 2026-04-15 08:20 | 19.84762 | 83.04743 | 33774 ft | 426 kts | 290° |
| 2026-04-15 08:20 | 19.86869 | 82.98848 | 33774 ft | 427 kts | 290° |
| 2026-04-15 08:21 | 19.88629 | 82.93945 | 33771 ft | 427 kts | 290° |
| 2026-04-15 08:21 | 19.91072 | 82.87028 | 33770 ft | 428 kts | 290° |
| 2026-04-15 08:22 | 19.92853 | 82.82101 | 33762 ft | 428 kts | 290° |
| 2026-04-15 08:22 | 19.95361 | 82.75235 | 33766 ft | 429 kts | 291° |
| 2026-04-15 08:23 | 19.97174 | 82.70318 | 33769 ft | 429 kts | 290° |
| 2026-04-15 08:23 | 19.99334 | 82.64380 | 33770 ft | 429 kts | 290° |
| 2026-04-15 08:24 | 20.01467 | 82.58489 | 33770 ft | 430 kts | 290° |
| 2026-04-15 08:24 | 20.03622 | 82.52552 | 33769 ft | 430 kts | 290° |
| 2026-04-15 08:25 | 20.05739 | 82.46602 | 33765 ft | 430 kts | 290° |
| 2026-04-15 08:25 | 20.07865 | 82.40685 | 33765 ft | 430 kts | 290° |
| 2026-04-15 08:26 | 20.10016 | 82.34736 | 33755 ft | 430 kts | 290° |
| 2026-04-15 08:26 | 20.12161 | 82.28783 | 33756 ft | 430 kts | 290° |
| 2026-04-15 08:27 | 20.14305 | 82.22830 | 33760 ft | 430 kts | 290° |
| 2026-04-15 08:27 | 20.16462 | 82.16885 | 33762 ft | 430 kts | 290° |
| 2026-04-15 08:28 | 20.18596 | 82.10933 | 33759 ft | 430 kts | 290° |
| 2026-04-15 08:28 | 20.20722 | 82.05022 | 33767 ft | 429 kts | 290° |
| 2026-04-15 08:29 | 20.22801 | 81.99051 | 33763 ft | 429 kts | 288° |
| 2026-04-15 08:29 | 20.24590 | 81.92997 | 33774 ft | 428 kts | 287° |
| 2026-04-15 08:30 | 20.26350 | 81.86968 | 33772 ft | 428 kts | 287° |
| 2026-04-15 08:30 | 20.28112 | 81.80902 | 33772 ft | 428 kts | 287° |
| 2026-04-15 08:31 | 20.29884 | 81.74839 | 33772 ft | 428 kts | 287° |
| 2026-04-15 08:31 | 20.31653 | 81.68769 | 33768 ft | 428 kts | 287° |
| 2026-04-15 08:32 | 20.33416 | 81.62713 | 33769 ft | 428 kts | 287° |
| 2026-04-15 08:32 | 20.35170 | 81.56693 | 33771 ft | 428 kts | 287° |
| 2026-04-15 08:33 | 20.36922 | 81.50629 | 33773 ft | 428 kts | 287° |
| 2026-04-15 08:33 | 20.38675 | 81.44564 | 33769 ft | 428 kts | 287° |
| 2026-04-15 08:34 | 20.40435 | 81.38509 | 33771 ft | 428 kts | 287° |
| 2026-04-15 08:34 | 20.42175 | 81.32477 | 33771 ft | 428 kts | 287° |
| 2026-04-15 08:35 | 20.43920 | 81.26407 | 33771 ft | 428 kts | 287° |
| 2026-04-15 08:35 | 20.45704 | 81.20333 | 33768 ft | 428 kts | 288° |
| 2026-04-15 08:36 | 20.47522 | 81.14293 | 33765 ft | 428 kts | 288° |
| 2026-04-15 08:36 | 20.49325 | 81.08241 | 33766 ft | 428 kts | 288° |
| 2026-04-15 08:37 | 20.51125 | 81.02194 | 33766 ft | 427 kts | 287° |
| 2026-04-15 08:37 | 20.52905 | 80.96177 | 33770 ft | 427 kts | 288° |
| 2026-04-15 08:38 | 20.54695 | 80.90124 | 33770 ft | 427 kts | 287° |
| 2026-04-15 08:38 | 20.56491 | 80.84074 | 33768 ft | 427 kts | 287° |
| 2026-04-15 08:39 | 20.58270 | 80.78066 | 33771 ft | 427 kts | 288° |
| 2026-04-15 08:39 | 20.60052 | 80.72023 | 33769 ft | 427 kts | 287° |
| 2026-04-15 08:40 | 20.61833 | 80.65979 | 33772 ft | 427 kts | 287° |
| 2026-04-15 08:40 | 20.63619 | 80.59922 | 33769 ft | 427 kts | 288° |
| 2026-04-15 08:41 | 20.65400 | 80.53874 | 33770 ft | 427 kts | 287° |
| 2026-04-15 08:41 | 20.67168 | 80.47829 | 33767 ft | 426 kts | 287° |
| 2026-04-15 08:42 | 20.68934 | 80.41815 | 33771 ft | 426 kts | 287° |
| 2026-04-15 08:42 | 20.70708 | 80.35766 | 33773 ft | 426 kts | 287° |
| 2026-04-15 08:43 | 20.72476 | 80.29718 | 33769 ft | 426 kts | 287° |
| 2026-04-15 08:43 | 20.74235 | 80.23662 | 33770 ft | 426 kts | 287° |
| 2026-04-15 08:44 | 20.75990 | 80.17645 | 33764 ft | 426 kts | 287° |
| 2026-04-15 08:44 | 20.77757 | 80.11587 | 33764 ft | 426 kts | 287° |
| 2026-04-15 08:45 | 20.79511 | 80.05535 | 33761 ft | 426 kts | 287° |
| 2026-04-15 08:45 | 20.81274 | 79.99485 | 33765 ft | 426 kts | 287° |
| 2026-04-15 08:46 | 20.83020 | 79.93467 | 33757 ft | 426 kts | 287° |
| 2026-04-15 08:46 | 20.84767 | 79.87409 | 33759 ft | 426 kts | 287° |
| 2026-04-15 08:47 | 20.86523 | 79.81344 | 33761 ft | 426 kts | 287° |
| 2026-04-15 08:47 | 20.88263 | 79.75307 | 33764 ft | 426 kts | 287° |
| 2026-04-15 08:48 | 20.90005 | 79.69245 | 33765 ft | 427 kts | 287° |
| 2026-04-15 08:48 | 20.91751 | 79.63172 | 33761 ft | 427 kts | 287° |
| 2026-04-15 08:49 | 20.93462 | 79.57092 | 33762 ft | 427 kts | 287° |
| 2026-04-15 08:49 | 20.95203 | 79.51020 | 33761 ft | 427 kts | 287° |
| 2026-04-15 08:50 | 20.96957 | 79.44942 | 33752 ft | 427 kts | 287° |
| 2026-04-15 08:50 | 20.98688 | 79.38890 | 33758 ft | 427 kts | 287° |
| 2026-04-15 08:51 | 21.00432 | 79.32801 | 33759 ft | 428 kts | 287° |
| 2026-04-15 08:51 | 21.02185 | 79.26713 | 33758 ft | 428 kts | 287° |
| 2026-04-15 08:52 | 21.03916 | 79.20653 | 33758 ft | 428 kts | 287° |
| 2026-04-15 08:52 | 21.05637 | 79.14555 | 33757 ft | 428 kts | 286° |
| 2026-04-15 08:53 | 21.07346 | 79.08454 | 33756 ft | 428 kts | 286° |
| 2026-04-15 08:53 | 21.09171 | 79.02384 | 33759 ft | 428 kts | 288° |
| 2026-04-15 08:54 | 21.11087 | 78.96338 | 33757 ft | 428 kts | 288° |
| 2026-04-15 08:54 | 21.12995 | 78.90286 | 33759 ft | 429 kts | 288° |
| 2026-04-15 08:55 | 21.14904 | 78.84239 | 33759 ft | 429 kts | 288° |
| 2026-04-15 08:55 | 21.16792 | 78.78221 | 33764 ft | 429 kts | 288° |
| 2026-04-15 08:56 | 21.18714 | 78.72162 | 33752 ft | 429 kts | 288° |
| 2026-04-15 08:56 | 21.20646 | 78.66113 | 33766 ft | 429 kts | 288° |
| 2026-04-15 08:57 | 21.22546 | 78.60088 | 33772 ft | 428 kts | 288° |
| 2026-04-15 08:57 | 21.24447 | 78.54027 | 33771 ft | 428 kts | 288° |
| 2026-04-15 08:58 | 21.26351 | 78.47959 | 33768 ft | 428 kts | 288° |
| 2026-04-15 08:58 | 21.29195 | 78.38904 | 33780 ft | 428 kts | 288° |
| 2026-04-15 08:59 | 21.31087 | 78.32851 | 33779 ft | 428 kts | 288° |
| 2026-04-15 08:59 | 21.32981 | 78.26794 | 33778 ft | 428 kts | 288° |
| 2026-04-15 09:00 | 21.34867 | 78.20733 | 33779 ft | 428 kts | 288° |
| 2026-04-15 09:00 | 21.36745 | 78.14713 | 33785 ft | 428 kts | 288° |
| 2026-04-15 09:01 | 21.38629 | 78.08647 | 33782 ft | 428 kts | 288° |
| 2026-04-15 09:01 | 21.40512 | 78.02577 | 33788 ft | 428 kts | 288° |
| 2026-04-15 09:02 | 21.42401 | 77.96512 | 33796 ft | 428 kts | 288° |
| 2026-04-15 09:02 | 21.44281 | 77.90440 | 33796 ft | 429 kts | 288° |
| 2026-04-15 09:03 | 21.46148 | 77.84400 | 33790 ft | 429 kts | 287° |
| 2026-04-15 09:03 | 21.48030 | 77.78303 | 33795 ft | 429 kts | 288° |
| 2026-04-15 09:04 | 21.49917 | 77.72214 | 33790 ft | 429 kts | 288° |
| 2026-04-15 09:04 | 21.51786 | 77.66169 | 33793 ft | 429 kts | 288° |
| 2026-04-15 09:05 | 21.53753 | 77.60115 | 33802 ft | 429 kts | 288° |
| 2026-04-15 09:05 | 21.55714 | 77.54068 | 33810 ft | 429 kts | 288° |
| 2026-04-15 09:06 | 21.57665 | 77.48004 | 33812 ft | 429 kts | 288° |
| 2026-04-15 09:06 | 21.59609 | 77.41943 | 33811 ft | 429 kts | 288° |
| 2026-04-15 09:07 | 21.61579 | 77.35920 | 33827 ft | 429 kts | 289° |
| 2026-04-15 09:07 | 21.63617 | 77.29882 | 33813 ft | 429 kts | 289° |
| 2026-04-15 09:08 | 21.65671 | 77.23849 | 33806 ft | 429 kts | 289° |
| 2026-04-15 09:08 | 21.67365 | 77.18833 | 33806 ft | 429 kts | 289° |
| 2026-04-15 09:09 | 21.69740 | 77.11814 | 33813 ft | 429 kts | 289° |
| 2026-04-15 09:09 | 21.71452 | 77.06754 | 33811 ft | 429 kts | 289° |
| 2026-04-15 09:10 | 21.73474 | 77.00743 | 33811 ft | 429 kts | 289° |
| 2026-04-15 09:10 | 21.75508 | 76.94694 | 33811 ft | 430 kts | 289° |
| 2026-04-15 09:11 | 21.77543 | 76.88634 | 33807 ft | 430 kts | 288° |
| 2026-04-15 09:11 | 21.79576 | 76.82586 | 33812 ft | 430 kts | 288° |
| 2026-04-15 09:12 | 21.81592 | 76.76569 | 33809 ft | 430 kts | 288° |
| 2026-04-15 09:12 | 21.83608 | 76.70519 | 33816 ft | 429 kts | 288° |
| 2026-04-15 09:13 | 21.85635 | 76.64471 | 33814 ft | 429 kts | 288° |
| 2026-04-15 09:13 | 21.87645 | 76.58442 | 33814 ft | 429 kts | 288° |
| 2026-04-15 09:14 | 21.89667 | 76.52390 | 33810 ft | 429 kts | 288° |
| 2026-04-15 09:14 | 21.91684 | 76.46334 | 33815 ft | 430 kts | 288° |
| 2026-04-15 09:15 | 21.93699 | 76.40267 | 33817 ft | 430 kts | 288° |
| 2026-04-15 09:15 | 21.95710 | 76.34192 | 33817 ft | 430 kts | 288° |
| 2026-04-15 09:16 | 21.97732 | 76.28111 | 33821 ft | 430 kts | 288° |
| 2026-04-15 09:16 | 21.99748 | 76.22033 | 33820 ft | 430 kts | 288° |
| 2026-04-15 09:17 | 22.01714 | 76.16053 | 33816 ft | 418 kts | 288° |
| 2026-04-15 09:17 | 22.03648 | 76.10178 | 33818 ft | 419 kts | 288° |
| 2026-04-15 09:18 | 22.05623 | 76.04216 | 33831 ft | 423 kts | 288° |
| 2026-04-15 09:18 | 22.07559 | 75.98223 | 33828 ft | 423 kts | 287° |
| 2026-04-15 09:19 | 22.09395 | 75.92245 | 33824 ft | 422 kts | 287° |
| 2026-04-15 09:19 | 22.11239 | 75.86227 | 33825 ft | 422 kts | 287° |
| 2026-04-15 09:20 | 22.13076 | 75.80211 | 33827 ft | 422 kts | 287° |
| 2026-04-15 09:20 | 22.14915 | 75.74206 | 33828 ft | 422 kts | 287° |
| 2026-04-15 09:21 | 22.16746 | 75.68229 | 33831 ft | 422 kts | 287° |
| 2026-04-15 09:21 | 22.18578 | 75.62215 | 33830 ft | 421 kts | 286° |
| 2026-04-15 09:22 | 22.20396 | 75.56206 | 33828 ft | 421 kts | 286° |
| 2026-04-15 09:22 | 22.22227 | 75.50195 | 33829 ft | 421 kts | 286° |
| 2026-04-15 09:23 | 22.24052 | 75.44184 | 33827 ft | 421 kts | 286° |
| 2026-04-15 09:23 | 22.25839 | 75.38163 | 33817 ft | 421 kts | 286° |
| 2026-04-15 09:24 | 22.27642 | 75.32178 | 33817 ft | 422 kts | 286° |
| 2026-04-15 09:24 | 22.29457 | 75.26146 | 33812 ft | 422 kts | 286° |
| 2026-04-15 09:25 | 22.31279 | 75.20117 | 33813 ft | 422 kts | 286° |
| 2026-04-15 09:25 | 22.33102 | 75.14067 | 33808 ft | 423 kts | 286° |
| 2026-04-15 09:26 | 22.34942 | 75.08064 | 33808 ft | 423 kts | 286° |
| 2026-04-15 09:26 | 22.36781 | 75.02024 | 33786 ft | 423 kts | 286° |
| 2026-04-15 09:27 | 22.38602 | 74.95961 | 33789 ft | 423 kts | 285° |
| 2026-04-15 09:27 | 22.39497 | 74.92976 | 33476 ft | 419 kts | 285° |
| 2026-04-15 09:27 | 22.40395 | 74.89975 | 33192 ft | 417 kts | 285° |
| 2026-04-15 09:28 | 22.41284 | 74.86992 | 32920 ft | 416 kts | 285° |
| 2026-04-15 09:28 | 22.42174 | 74.84013 | 32653 ft | 414 kts | 285° |
| 2026-04-15 09:28 | 22.43050 | 74.81087 | 32400 ft | 413 kts | 285° |
| 2026-04-15 09:28 | 22.43932 | 74.78137 | 32154 ft | 411 kts | 285° |
| 2026-04-15 09:29 | 22.44809 | 74.75204 | 31912 ft | 410 kts | 285° |
| 2026-04-15 09:29 | 22.45680 | 74.72265 | 31663 ft | 408 kts | 285° |
| 2026-04-15 09:29 | 22.46549 | 74.69337 | 31416 ft | 407 kts | 285° |
| 2026-04-15 09:29 | 22.47410 | 74.66430 | 31176 ft | 406 kts | 285° |
| 2026-04-15 09:30 | 22.48274 | 74.63528 | 30940 ft | 404 kts | 285° |
| 2026-04-15 09:30 | 22.49137 | 74.60636 | 30701 ft | 403 kts | 286° |
| 2026-04-15 09:30 | 22.49987 | 74.57787 | 30471 ft | 402 kts | 286° |
| 2026-04-15 09:30 | 22.50841 | 74.54912 | 30239 ft | 401 kts | 285° |
| 2026-04-15 09:31 | 22.51688 | 74.52044 | 30006 ft | 399 kts | 285° |
| 2026-04-15 09:31 | 22.52535 | 74.49179 | 29765 ft | 398 kts | 286° |
| 2026-04-15 09:31 | 22.53375 | 74.46331 | 29489 ft | 396 kts | 286° |
| 2026-04-15 09:31 | 22.54215 | 74.43491 | 29220 ft | 394 kts | 286° |
| 2026-04-15 09:32 | 22.55035 | 74.40707 | 28956 ft | 392 kts | 286° |
| 2026-04-15 09:32 | 22.55860 | 74.37899 | 28634 ft | 390 kts | 286° |
| 2026-04-15 09:32 | 22.56683 | 74.35116 | 28132 ft | 386 kts | 286° |
| 2026-04-15 09:32 | 22.57503 | 74.32350 | 27605 ft | 384 kts | 286° |
| 2026-04-15 09:33 | 22.58314 | 74.29607 | 27060 ft | 381 kts | 286° |
| 2026-04-15 09:33 | 22.59118 | 74.26882 | 26513 ft | 380 kts | 286° |
| 2026-04-15 09:33 | 22.59922 | 74.24163 | 25961 ft | 378 kts | 286° |
| 2026-04-15 09:33 | 22.60769 | 74.21504 | 25443 ft | 377 kts | 290° |
| 2026-04-15 09:34 | 22.61757 | 74.18879 | 24943 ft | 375 kts | 291° |
| 2026-04-15 09:34 | 22.62755 | 74.16273 | 24420 ft | 374 kts | 291° |
| 2026-04-15 09:34 | 22.63744 | 74.13679 | 23892 ft | 371 kts | 291° |
| 2026-04-15 09:34 | 22.64726 | 74.11104 | 23376 ft | 368 kts | 291° |
| 2026-04-15 09:35 | 22.65703 | 74.08544 | 22779 ft | 365 kts | 291° |
| 2026-04-15 09:35 | 22.66665 | 74.06011 | 22207 ft | 362 kts | 291° |
| 2026-04-15 09:35 | 22.67604 | 74.03535 | 21675 ft | 358 kts | 291° |
| 2026-04-15 09:35 | 22.68547 | 74.01050 | 21134 ft | 355 kts | 291° |
| 2026-04-15 09:36 | 22.69487 | 73.98582 | 20622 ft | 352 kts | 291° |
| 2026-04-15 09:36 | 22.70416 | 73.96141 | 20126 ft | 348 kts | 291° |
| 2026-04-15 09:36 | 22.71332 | 73.93726 | 19653 ft | 344 kts | 291° |
| 2026-04-15 09:36 | 22.72238 | 73.91338 | 19205 ft | 340 kts | 291° |
| 2026-04-15 09:37 | 22.73129 | 73.88981 | 18760 ft | 337 kts | 291° |
| 2026-04-15 09:37 | 22.74021 | 73.86629 | 18330 ft | 337 kts | 291° |
| 2026-04-15 09:37 | 22.74900 | 73.84307 | 17887 ft | 337 kts | 292° |
| 2026-04-15 09:37 | 22.75789 | 73.81961 | 17414 ft | 336 kts | 292° |
| 2026-04-15 09:38 | 22.76677 | 73.79617 | 16959 ft | 336 kts | 292° |
| 2026-04-15 09:38 | 22.77563 | 73.77276 | 16524 ft | 335 kts | 292° |
| 2026-04-15 09:38 | 22.78445 | 73.74938 | 16104 ft | 335 kts | 291° |
| 2026-04-15 09:38 | 22.79320 | 73.72620 | 15699 ft | 334 kts | 291° |
| 2026-04-15 09:39 | 22.80200 | 73.70286 | 15287 ft | 334 kts | 291° |
| 2026-04-15 09:39 | 22.81082 | 73.67953 | 14876 ft | 334 kts | 292° |
| 2026-04-15 09:39 | 22.81963 | 73.65622 | 14456 ft | 335 kts | 292° |
| 2026-04-15 09:39 | 22.82846 | 73.63282 | 14032 ft | 334 kts | 292° |
| 2026-04-15 09:40 | 22.83720 | 73.60964 | 13602 ft | 330 kts | 291° |
| 2026-04-15 09:40 | 22.84582 | 73.58677 | 13138 ft | 325 kts | 291° |
| 2026-04-15 09:40 | 22.85420 | 73.56450 | 12696 ft | 320 kts | 291° |
| 2026-04-15 09:40 | 22.86263 | 73.54210 | 12291 ft | 314 kts | 291° |
| 2026-04-15 09:41 | 22.87070 | 73.52060 | 11883 ft | 309 kts | 291° |
| 2026-04-15 09:41 | 22.87872 | 73.49925 | 11475 ft | 304 kts | 291° |
| 2026-04-15 09:41 | 22.88670 | 73.47799 | 11072 ft | 304 kts | 291° |
| 2026-04-15 09:41 | 22.89469 | 73.45670 | 10677 ft | 305 kts | 291° |
| 2026-04-15 09:42 | 22.90265 | 73.43549 | 10351 ft | 300 kts | 291° |
| 2026-04-15 09:42 | 22.91040 | 73.41481 | 10117 ft | 290 kts | 291° |
| 2026-04-15 09:42 | 22.91783 | 73.39499 | 9913 ft | 279 kts | 291° |
| 2026-04-15 09:42 | 22.92503 | 73.37576 | 9588 ft | 276 kts | 291° |
| 2026-04-15 09:43 | 22.93221 | 73.35656 | 9160 ft | 274 kts | 291° |
| 2026-04-15 09:43 | 22.93943 | 73.33727 | 8785 ft | 276 kts | 291° |
| 2026-04-15 09:43 | 22.94665 | 73.31796 | 8391 ft | 277 kts | 291° |
| 2026-04-15 09:43 | 22.95388 | 73.29859 | 8032 ft | 275 kts | 291° |
| 2026-04-15 09:44 | 22.96097 | 73.27963 | 7829 ft | 266 kts | 291° |
| 2026-04-15 09:44 | 22.96776 | 73.26145 | 7676 ft | 254 kts | 291° |
| 2026-04-15 09:44 | 22.97422 | 73.24416 | 7526 ft | 240 kts | 291° |
| 2026-04-15 09:44 | 22.98028 | 73.22792 | 7308 ft | 231 kts | 291° |
| 2026-04-15 09:45 | 22.98633 | 73.21170 | 7217 ft | 231 kts | 291° |
| 2026-04-15 09:45 | 22.99237 | 73.19548 | 7209 ft | 232 kts | 291° |
| 2026-04-15 09:45 | 22.99844 | 73.17921 | 7212 ft | 232 kts | 291° |
| 2026-04-15 09:45 | 23.00453 | 73.16290 | 7211 ft | 233 kts | 292° |
| 2026-04-15 09:46 | 23.01124 | 73.14681 | 6818 ft | 236 kts | 294° |
| 2026-04-15 09:46 | 23.01810 | 73.13106 | 6596 ft | 232 kts | 294° |
| 2026-04-15 09:46 | 23.02495 | 73.11525 | 6363 ft | 231 kts | 294° |
| 2026-04-15 09:46 | 23.03178 | 73.09941 | 6061 ft | 231 kts | 294° |
| 2026-04-15 09:47 | 23.03855 | 73.08363 | 5730 ft | 230 kts | 294° |
| 2026-04-15 09:47 | 23.04528 | 73.06791 | 5390 ft | 229 kts | 294° |
| 2026-04-15 09:47 | 23.05190 | 73.05243 | 5051 ft | 228 kts | 294° |
| 2026-04-15 09:47 | 23.05855 | 73.03685 | 4725 ft | 226 kts | 294° |
| 2026-04-15 09:48 | 23.06519 | 73.02130 | 4380 ft | 226 kts | 294° |
| 2026-04-15 09:48 | 23.07177 | 73.00588 | 4032 ft | 224 kts | 294° |
| 2026-04-15 09:48 | 23.07893 | 72.99084 | 3757 ft | 225 kts | 306° |
| 2026-04-15 09:48 | 23.08958 | 72.97830 | 3557 ft | 223 kts | 314° |
| 2026-04-15 09:49 | 23.10040 | 72.96700 | 3390 ft | 207 kts | 314° |
| 2026-04-15 09:49 | 23.11028 | 72.95661 | 3346 ft | 193 kts | 314° |
| 2026-04-15 09:49 | 23.11974 | 72.94647 | 3240 ft | 193 kts | 313° |
| 2026-04-15 09:49 | 23.12923 | 72.93619 | 3131 ft | 192 kts | 313° |
| 2026-04-15 09:50 | 23.13872 | 72.92583 | 3014 ft | 192 kts | 313° |
| 2026-04-15 09:50 | 23.14812 | 72.91556 | 2895 ft | 193 kts | 313° |
| 2026-04-15 09:50 | 23.15753 | 72.90526 | 2770 ft | 191 kts | 313° |
| 2026-04-15 09:50 | 23.16636 | 72.89446 | 2645 ft | 190 kts | 300° |
| 2026-04-15 09:51 | 23.17163 | 72.88159 | 2533 ft | 188 kts | 291° |
| 2026-04-15 09:51 | 23.17672 | 72.86846 | 2412 ft | 188 kts | 292° |
| 2026-04-15 09:51 | 23.18192 | 72.85542 | 2313 ft | 188 kts | 292° |
| 2026-04-15 09:51 | 23.18721 | 72.84238 | 2193 ft | 188 kts | 292° |
| 2026-04-15 09:52 | 23.19251 | 72.82937 | 2080 ft | 188 kts | 292° |
| 2026-04-15 09:52 | 23.19780 | 72.81637 | 1983 ft | 187 kts | 292° |
| 2026-04-15 09:52 | 23.20309 | 72.80338 | 1976 ft | 188 kts | 292° |
| 2026-04-15 09:52 | 23.20827 | 72.79027 | 1978 ft | 187 kts | 288° |
| 2026-04-15 09:53 | 23.20968 | 72.77641 | 1967 ft | 187 kts | 257° |
| 2026-04-15 09:53 | 23.20243 | 72.76516 | 1982 ft | 189 kts | 219° |
| 2026-04-15 09:53 | 23.19221 | 72.75618 | 2008 ft | 188 kts | 221° |
| 2026-04-15 09:53 | 23.18248 | 72.74667 | 2006 ft | 187 kts | 224° |
| 2026-04-15 09:54 | 23.17326 | 72.73724 | 2013 ft | 171 kts | 224° |
| 2026-04-15 09:54 | 23.16541 | 72.72894 | 2023 ft | 145 kts | 226° |
| 2026-04-15 09:54 | 23.15828 | 72.72131 | 1983 ft | 143 kts | 226° |
| 2026-04-15 09:54 | 23.15120 | 72.71372 | 1863 ft | 142 kts | 226° |
| 2026-04-15 09:55 | 23.14424 | 72.70624 | 1686 ft | 143 kts | 226° |
| 2026-04-15 09:55 | 23.13714 | 72.69863 | 1533 ft | 142 kts | 226° |
| 2026-04-15 09:55 | 23.13007 | 72.69103 | 1332 ft | 144 kts | 225° |
| 2026-04-15 09:55 | 23.12297 | 72.68340 | 1163 ft | 143 kts | 226° |
| 2026-04-15 09:56 | 23.11588 | 72.67587 | 972 ft | 143 kts | 225° |
| 2026-04-15 09:56 | 23.10886 | 72.66827 | 819 ft | 142 kts | 224° |
| 2026-04-15 09:56 | 23.09488 | 72.65321 | 407 ft | 139 kts | 225° |
| 2026-04-15 09:57 | 23.08797 | 72.64579 | 224 ft | 140 kts | 223° |
| 2026-04-15 09:57 | 23.08165 | 72.63918 | 206 ft | 103 kts | 225° |
| 2026-04-15 09:57 | 23.07797 | 72.63525 | 209 ft | 44 kts | 224° |
| 2026-04-15 09:57 | 23.07649 | 72.63368 | 200 ft | 45 kts | 225° |
| 2026-04-15 09:58 | 23.07423 | 72.63124 | 204 ft | 46 kts | 224° |
| 2026-04-15 09:58 | 23.07202 | 72.62879 | 206 ft | 18 kts | 241° |
| 2026-04-15 09:58 | 23.07177 | 72.62780 | 195 ft | 10 kts | 258° |
| 2026-04-15 09:58 | 23.07167 | 72.62729 | 200 ft | 11 kts | 258° |
| 2026-04-15 09:59 | 23.07151 | 72.62642 | 195 ft | 12 kts | 261° |
| 2026-04-15 09:59 | 23.07171 | 72.62580 | 200 ft | 8 kts | 317° |
| 2026-04-15 09:59 | 23.07211 | 72.62539 | 197 ft | 6 kts | 316° |
| 2026-04-15 09:59 | 23.07244 | 72.62505 | 204 ft | 6 kts | 315° |
| 2026-04-15 10:00 | 23.07263 | 72.62485 | 199 ft | 6 kts | 327° |
| 2026-04-15 10:00 | 23.07308 | 72.62494 | 191 ft | 7 kts | 33° |
| 2026-04-15 10:00 | 23.07344 | 72.62496 | 199 ft | 4 kts | 325° |
| 2026-04-15 10:00 | 23.07366 | 72.62472 | 195 ft | 4 kts | 317° |
| 2026-04-15 10:01 | 23.07372 | 72.62467 | 196 ft | 0 kts | 316° |
| 2026-04-15 10:01 | 23.07377 | 72.62462 | 194 ft | 1 kts | 316° |
| 2026-04-15 10:01 | 23.07377 | 72.62461 | 194 ft | 0 kts | 316° |